To NAV CANADA Home Page Login to a new session Search on AWWS site Feedback and Comments Disclaimer Vers la page française équivalente Tips FAQ What's new on the site To the Forecasts and Observations / NOTAM section To "File a Flight Plan" website Publications and other links Update of the User's profile FIC Telephone Numbers My Weather Data Folder Route Weather Data Regional Weather Data Local Weather Data To the Forecasts and Observations / NOTAM section
Request Generated 04/30/2017 at 20:31:25 UTC . Weather information available at that time is displayed.

METAR/TAF

CARTWRIGHT/NL    

METAR CWCA 302000Z 32025G33KT 15SM FEW020 M01/M10 A2988 RMK CU2
SLP120=
METAR CWCA 301900Z 33020G30KT 15SM FEW020 M01/M10 A2987 RMK CU2
SLP117=
METAR CWCA 301800Z 33024G32KT 15SM BKN020 M02/M10 A2985 RMK SC7
SLP112=

TAF CYCA 301942Z 3020/0108 ADVISORY OFFSITE 33020G30KT P6SM SCT020
TEMPO 3020/0105 BKN020
BECMG 0100/0102 31015G25KT
FM010500 31015G25KT P6SM SCT020
RMK NXT FCST BY 010200Z=
Your time UTC time
Weather data provided by Environment Canada and NAV CANADA